CFE322 EGPF-EGLC
Flight info
| Callsign | CFE322 |
|---|---|
| Flight time | 1h 21m |
| Altitude | 35000 |
| Route | NORBO T256 RIPNO DCT AKOMU DCT VAMEB UL612 LISTO |
| Aircraft | E190/M-SDE3GILORVW/S |
Departure
| Time | 2026-04-28 18:14 |
|---|---|
| Airport | Glasgow Airport (EGPF) |
Arrival
| Time | 2026-04-28 19:36 |
|---|---|
| Airport | London City Airport (EGLC) |
| Time | Latitude | Longitude | Altitude | Speed | Heading |
|---|---|---|---|---|---|
| 2026-04-28 17:47 | 55.86632 | -4.43008 | 28 ft | 0 kts | 254° |
| 2026-04-28 18:07 | 55.86637 | -4.42971 | 27 ft | 4 kts | 267° |
| 2026-04-28 18:08 | 55.86634 | -4.42927 | 27 ft | 4 kts | 307° |
| 2026-04-28 18:08 | 55.86621 | -4.42907 | 27 ft | 0 kts | 343° |
| 2026-04-28 18:10 | 55.86622 | -4.42907 | 27 ft | 1 kts | 343° |
| 2026-04-28 18:10 | 55.86649 | -4.42921 | 27 ft | 10 kts | 343° |
| 2026-04-28 18:11 | 55.86746 | -4.42970 | 27 ft | 16 kts | 344° |
| 2026-04-28 18:11 | 55.86827 | -4.43079 | 27 ft | 16 kts | 275° |
| 2026-04-28 18:11 | 55.86807 | -4.43279 | 27 ft | 17 kts | 254° |
| 2026-04-28 18:11 | 55.86773 | -4.43494 | 27 ft | 19 kts | 253° |
| 2026-04-28 18:12 | 55.86738 | -4.43713 | 27 ft | 18 kts | 255° |
| 2026-04-28 18:12 | 55.86659 | -4.43896 | 27 ft | 19 kts | 225° |
| 2026-04-28 18:12 | 55.86563 | -4.44069 | 27 ft | 21 kts | 225° |
| 2026-04-28 18:12 | 55.86459 | -4.44260 | 27 ft | 21 kts | 227° |
| 2026-04-28 18:13 | 55.86358 | -4.44456 | 27 ft | 22 kts | 227° |
| 2026-04-28 18:13 | 55.86259 | -4.44675 | 27 ft | 23 kts | 261° |
| 2026-04-28 18:13 | 55.86338 | -4.44863 | 27 ft | 15 kts | 326° |
| 2026-04-28 18:13 | 55.86405 | -4.44806 | 27 ft | 14 kts | 46° |
| 2026-04-28 18:14 | 55.86647 | -4.44349 | 27 ft | 87 kts | 46° |
| 2026-04-28 18:14 | 55.87227 | -4.43262 | 51 ft | 147 kts | 48° |
| 2026-04-28 18:14 | 55.87995 | -4.41811 | 596 ft | 170 kts | 47° |
| 2026-04-28 18:14 | 55.88817 | -4.40269 | 821 ft | 174 kts | 47° |
| 2026-04-28 18:15 | 55.89724 | -4.38581 | 947 ft | 204 kts | 46° |
| 2026-04-28 18:15 | 55.90718 | -4.36750 | 1761 ft | 208 kts | 47° |
| 2026-04-28 18:15 | 55.91751 | -4.34816 | 2501 ft | 219 kts | 48° |
| 2026-04-28 18:15 | 55.92799 | -4.32852 | 3518 ft | 220 kts | 47° |
| 2026-04-28 18:16 | 55.93900 | -4.30791 | 4179 ft | 237 kts | 46° |
| 2026-04-28 18:16 | 55.95327 | -4.29162 | 4819 ft | 254 kts | 19° |
| 2026-04-28 18:16 | 55.97071 | -4.28527 | 5733 ft | 259 kts | 8° |
| 2026-04-28 18:16 | 55.98910 | -4.28389 | 6400 ft | 266 kts | 1° |
| 2026-04-28 18:17 | 56.00789 | -4.28750 | 7122 ft | 275 kts | 352° |
| 2026-04-28 18:17 | 56.02653 | -4.29597 | 7949 ft | 279 kts | 345° |
| 2026-04-28 18:17 | 56.04465 | -4.30889 | 8795 ft | 282 kts | 337° |
| 2026-04-28 18:17 | 56.06072 | -4.32948 | 9596 ft | 290 kts | 316° |
| 2026-04-28 18:18 | 56.07190 | -4.35992 | 10404 ft | 298 kts | 297° |
| 2026-04-28 18:18 | 56.07835 | -4.39625 | 10861 ft | 317 kts | 280° |
| 2026-04-28 18:18 | 56.07756 | -4.43646 | 11387 ft | 333 kts | 255° |
| 2026-04-28 18:18 | 56.07102 | -4.46124 | 11842 ft | 337 kts | 234° |
| 2026-04-28 18:19 | 56.04684 | -4.49735 | 12730 ft | 345 kts | 206° |
| 2026-04-28 18:19 | 56.02481 | -4.51458 | 13521 ft | 348 kts | 194° |
| 2026-04-28 18:19 | 56.00116 | -4.52372 | 14348 ft | 349 kts | 182° |
| 2026-04-28 18:19 | 55.97723 | -4.52381 | 15131 ft | 349 kts | 168° |
| 2026-04-28 18:20 | 55.95468 | -4.51036 | 15922 ft | 340 kts | 142° |
| 2026-04-28 18:20 | 55.93771 | -4.48219 | 16665 ft | 333 kts | 122° |
| 2026-04-28 18:20 | 55.92432 | -4.44888 | 17510 ft | 334 kts | 123° |
| 2026-04-28 18:20 | 55.90751 | -4.41873 | 18029 ft | 354 kts | 135° |
| 2026-04-28 18:21 | 55.88633 | -4.39389 | 18501 ft | 374 kts | 146° |
| 2026-04-28 18:21 | 55.86278 | -4.37389 | 19393 ft | 372 kts | 149° |
| 2026-04-28 18:21 | 55.83916 | -4.35606 | 20450 ft | 368 kts | 153° |
| 2026-04-28 18:21 | 55.81521 | -4.34002 | 21232 ft | 369 kts | 154° |
| 2026-04-28 18:22 | 55.79107 | -4.32401 | 21891 ft | 372 kts | 154° |
| 2026-04-28 18:22 | 55.76673 | -4.30777 | 22497 ft | 376 kts | 154° |
| 2026-04-28 18:22 | 55.74214 | -4.29127 | 23075 ft | 380 kts | 154° |
| 2026-04-28 18:22 | 55.71733 | -4.27439 | 23623 ft | 384 kts | 151° |
| 2026-04-28 18:23 | 55.69314 | -4.25444 | 24198 ft | 385 kts | 149° |
| 2026-04-28 18:23 | 55.66885 | -4.23397 | 24692 ft | 389 kts | 149° |
| 2026-04-28 18:23 | 55.64434 | -4.21314 | 25187 ft | 393 kts | 149° |
| 2026-04-28 18:23 | 55.61963 | -4.19203 | 25673 ft | 396 kts | 149° |
| 2026-04-28 18:24 | 55.59469 | -4.17065 | 26143 ft | 400 kts | 149° |
| 2026-04-28 18:24 | 55.58620 | -4.16334 | 26299 ft | 402 kts | 149° |
| 2026-04-28 18:24 | 55.54413 | -4.12705 | 27031 ft | 408 kts | 149° |
| 2026-04-28 18:24 | 55.51851 | -4.10489 | 27461 ft | 412 kts | 149° |
| 2026-04-28 18:25 | 55.49270 | -4.08249 | 27898 ft | 415 kts | 149° |
| 2026-04-28 18:25 | 55.47539 | -4.06657 | 28185 ft | 415 kts | 145° |
| 2026-04-28 18:25 | 55.45100 | -4.03934 | 28633 ft | 416 kts | 141° |
| 2026-04-28 18:26 | 55.40081 | -3.98706 | 29440 ft | 426 kts | 149° |
| 2026-04-28 18:26 | 55.37358 | -3.96590 | 29864 ft | 430 kts | 153° |
| 2026-04-28 18:26 | 55.34569 | -3.94643 | 30265 ft | 433 kts | 155° |
| 2026-04-28 18:26 | 55.31717 | -3.92845 | 30631 ft | 437 kts | 156° |
| 2026-04-28 18:27 | 55.28826 | -3.91135 | 30938 ft | 440 kts | 157° |
| 2026-04-28 18:27 | 55.25904 | -3.89486 | 31266 ft | 443 kts | 158° |
| 2026-04-28 18:27 | 55.22954 | -3.87876 | 31565 ft | 445 kts | 158° |
| 2026-04-28 18:27 | 55.19989 | -3.86300 | 31856 ft | 448 kts | 158° |
| 2026-04-28 18:28 | 55.16997 | -3.84735 | 32133 ft | 449 kts | 159° |
| 2026-04-28 18:28 | 55.13988 | -3.83191 | 32408 ft | 452 kts | 159° |
| 2026-04-28 18:28 | 55.11002 | -3.81677 | 32665 ft | 454 kts | 159° |
| 2026-04-28 18:28 | 55.07968 | -3.80149 | 32968 ft | 454 kts | 159° |
| 2026-04-28 18:29 | 55.04935 | -3.78634 | 33319 ft | 453 kts | 159° |
| 2026-04-28 18:29 | 55.01902 | -3.77132 | 33642 ft | 453 kts | 159° |
| 2026-04-28 18:29 | 54.98870 | -3.75646 | 33944 ft | 453 kts | 159° |
| 2026-04-28 18:29 | 54.95835 | -3.74172 | 34218 ft | 452 kts | 159° |
| 2026-04-28 18:30 | 54.92943 | -3.72205 | 34500 ft | 442 kts | 145° |
| 2026-04-28 18:30 | 54.91146 | -3.70433 | 34702 ft | 438 kts | 142° |
| 2026-04-28 18:30 | 54.87731 | -3.66769 | 35065 ft | 435 kts | 142° |
| 2026-04-28 18:30 | 54.85155 | -3.64015 | 35317 ft | 434 kts | 142° |
| 2026-04-28 18:31 | 54.82591 | -3.61292 | 35566 ft | 434 kts | 142° |
| 2026-04-28 18:31 | 54.77361 | -3.55754 | 35568 ft | 446 kts | 142° |
| 2026-04-28 18:32 | 54.71990 | -3.50106 | 35426 ft | 455 kts | 142° |
| 2026-04-28 18:32 | 54.66571 | -3.44438 | 35435 ft | 455 kts | 142° |
| 2026-04-28 18:33 | 54.61146 | -3.38782 | 35449 ft | 456 kts | 142° |
| 2026-04-28 18:33 | 54.55709 | -3.33130 | 35428 ft | 457 kts | 142° |
| 2026-04-28 18:34 | 54.50269 | -3.27494 | 35425 ft | 456 kts | 142° |
| 2026-04-28 18:34 | 54.44828 | -3.21875 | 35446 ft | 456 kts | 142° |
| 2026-04-28 18:35 | 54.39400 | -3.16287 | 35429 ft | 454 kts | 142° |
| 2026-04-28 18:35 | 54.33975 | -3.10717 | 35433 ft | 455 kts | 142° |
| 2026-04-28 18:36 | 54.28545 | -3.05159 | 35430 ft | 455 kts | 142° |
| 2026-04-28 18:36 | 54.23110 | -2.99615 | 35422 ft | 455 kts | 142° |
| 2026-04-28 18:37 | 54.17676 | -2.94102 | 35435 ft | 454 kts | 144° |
| 2026-04-28 18:37 | 54.11880 | -2.89540 | 35434 ft | 461 kts | 149° |
| 2026-04-28 18:38 | 54.06023 | -2.85129 | 35431 ft | 460 kts | 149° |
| 2026-04-28 18:38 | 54.00165 | -2.80722 | 35422 ft | 460 kts | 149° |
| 2026-04-28 18:39 | 53.94255 | -2.76468 | 35407 ft | 461 kts | 149° |
| 2026-04-28 18:39 | 53.88354 | -2.72257 | 35415 ft | 460 kts | 149° |
| 2026-04-28 18:40 | 53.82465 | -2.68019 | 35418 ft | 460 kts | 149° |
| 2026-04-28 18:40 | 53.76575 | -2.63793 | 35415 ft | 460 kts | 149° |
| 2026-04-28 18:41 | 53.70678 | -2.59576 | 35444 ft | 459 kts | 149° |
| 2026-04-28 18:41 | 53.64788 | -2.55378 | 35411 ft | 456 kts | 149° |
| 2026-04-28 18:42 | 53.58983 | -2.51248 | 35417 ft | 456 kts | 149° |
| 2026-04-28 18:42 | 53.53129 | -2.47097 | 35414 ft | 457 kts | 149° |
| 2026-04-28 18:43 | 53.47269 | -2.42955 | 35417 ft | 457 kts | 149° |
| 2026-04-28 18:43 | 53.41412 | -2.38826 | 35403 ft | 457 kts | 149° |
| 2026-04-28 18:44 | 53.35551 | -2.34709 | 35402 ft | 457 kts | 149° |
| 2026-04-28 18:44 | 53.26756 | -2.28552 | 35401 ft | 457 kts | 149° |
| 2026-04-28 18:45 | 53.20894 | -2.24466 | 35386 ft | 456 kts | 149° |
| 2026-04-28 18:45 | 53.15056 | -2.20384 | 35409 ft | 452 kts | 146° |
| 2026-04-28 18:46 | 53.12414 | -2.17716 | 35437 ft | 441 kts | 136° |
| 2026-04-28 18:46 | 53.09944 | -2.14700 | 35431 ft | 440 kts | 135° |
| 2026-04-28 18:46 | 53.05018 | -2.08655 | 35402 ft | 440 kts | 135° |
| 2026-04-28 18:47 | 53.00087 | -2.02641 | 35433 ft | 440 kts | 135° |
| 2026-04-28 18:47 | 52.95180 | -1.96683 | 35398 ft | 435 kts | 135° |
| 2026-04-28 18:48 | 52.90290 | -1.90759 | 35406 ft | 436 kts | 135° |
| 2026-04-28 18:48 | 52.85389 | -1.84843 | 35403 ft | 436 kts | 135° |
| 2026-04-28 18:49 | 52.82105 | -1.80888 | 35392 ft | 436 kts | 135° |
| 2026-04-28 18:49 | 52.75567 | -1.73041 | 35391 ft | 437 kts | 136° |
| 2026-04-28 18:50 | 52.70200 | -1.68082 | 35319 ft | 444 kts | 144° |
| 2026-04-28 18:50 | 52.64720 | -1.63390 | 35312 ft | 444 kts | 144° |
| 2026-04-28 18:51 | 52.59243 | -1.58698 | 35302 ft | 444 kts | 144° |
| 2026-04-28 18:51 | 52.53760 | -1.54011 | 35294 ft | 444 kts | 144° |
| 2026-04-28 18:52 | 52.48283 | -1.49343 | 35350 ft | 441 kts | 144° |
| 2026-04-28 18:52 | 52.42835 | -1.44708 | 35351 ft | 441 kts | 144° |
| 2026-04-28 18:53 | 52.37379 | -1.40080 | 35370 ft | 442 kts | 144° |
| 2026-04-28 18:53 | 52.31919 | -1.35461 | 35373 ft | 442 kts | 144° |
| 2026-04-28 18:54 | 52.29408 | -1.32730 | 35394 ft | 426 kts | 130° |
| 2026-04-28 18:54 | 52.27423 | -1.29226 | 35452 ft | 419 kts | 123° |
| 2026-04-28 18:54 | 52.23697 | -1.21995 | 35374 ft | 414 kts | 123° |
| 2026-04-28 18:55 | 52.20591 | -1.15950 | 35358 ft | 415 kts | 123° |
| 2026-04-28 18:55 | 52.16278 | -1.07575 | 35351 ft | 415 kts | 123° |
| 2026-04-28 18:56 | 52.13417 | -0.99748 | 35371 ft | 395 kts | 98° |
| 2026-04-28 18:56 | 52.13134 | -0.95447 | 35357 ft | 371 kts | 87° |
| 2026-04-28 18:56 | 52.13138 | -0.91347 | 35316 ft | 354 kts | 88° |
| 2026-04-28 18:57 | 52.13121 | -0.87385 | 34695 ft | 353 kts | 88° |
| 2026-04-28 18:57 | 52.13082 | -0.83307 | 33539 ft | 363 kts | 88° |
| 2026-04-28 18:57 | 52.13080 | -0.79302 | 33280 ft | 347 kts | 87° |
| 2026-04-28 18:57 | 52.13117 | -0.75399 | 32757 ft | 340 kts | 86° |
| 2026-04-28 18:58 | 52.13148 | -0.71609 | 32326 ft | 332 kts | 86° |
| 2026-04-28 18:58 | 52.13181 | -0.67893 | 31916 ft | 325 kts | 86° |
| 2026-04-28 18:58 | 52.13209 | -0.64214 | 31480 ft | 325 kts | 86° |
| 2026-04-28 18:58 | 52.13239 | -0.60521 | 31069 ft | 329 kts | 86° |
| 2026-04-28 18:59 | 52.13266 | -0.56775 | 30612 ft | 333 kts | 86° |
| 2026-04-28 18:59 | 52.13291 | -0.52995 | 30145 ft | 335 kts | 86° |
| 2026-04-28 18:59 | 52.13294 | -0.49195 | 29723 ft | 337 kts | 88° |
| 2026-04-28 18:59 | 52.13286 | -0.45364 | 29254 ft | 340 kts | 87° |
| 2026-04-28 19:00 | 52.13283 | -0.41504 | 28811 ft | 342 kts | 87° |
| 2026-04-28 19:00 | 52.13282 | -0.37617 | 28346 ft | 345 kts | 87° |
| 2026-04-28 19:00 | 52.13281 | -0.33708 | 27894 ft | 346 kts | 87° |
| 2026-04-28 19:00 | 52.13281 | -0.29805 | 27422 ft | 344 kts | 87° |
| 2026-04-28 19:01 | 52.13280 | -0.25917 | 26968 ft | 342 kts | 88° |
| 2026-04-28 19:01 | 52.13279 | -0.22052 | 26514 ft | 341 kts | 88° |
| 2026-04-28 19:01 | 52.13277 | -0.18208 | 26060 ft | 339 kts | 88° |
| 2026-04-28 19:01 | 52.13274 | -0.14388 | 25616 ft | 337 kts | 88° |
| 2026-04-28 19:02 | 52.13270 | -0.10579 | 25162 ft | 336 kts | 88° |
| 2026-04-28 19:02 | 52.13266 | -0.06789 | 24725 ft | 334 kts | 88° |
| 2026-04-28 19:02 | 52.13260 | -0.03012 | 24268 ft | 333 kts | 88° |
| 2026-04-28 19:02 | 52.13253 | 0.00750 | 23821 ft | 333 kts | 88° |
| 2026-04-28 19:03 | 52.13246 | 0.04509 | 23394 ft | 331 kts | 88° |
| 2026-04-28 19:03 | 52.13237 | 0.08257 | 22948 ft | 331 kts | 88° |
| 2026-04-28 19:03 | 52.13229 | 0.11989 | 22566 ft | 328 kts | 88° |
| 2026-04-28 19:03 | 52.13108 | 0.15676 | 22419 ft | 327 kts | 95° |
| 2026-04-28 19:04 | 52.12815 | 0.19355 | 22230 ft | 328 kts | 95° |
| 2026-04-28 19:04 | 52.12524 | 0.23024 | 22282 ft | 327 kts | 95° |
| 2026-04-28 19:04 | 52.12227 | 0.26704 | 22296 ft | 328 kts | 95° |
| 2026-04-28 19:04 | 52.11927 | 0.30390 | 22311 ft | 329 kts | 95° |
| 2026-04-28 19:05 | 52.11625 | 0.34089 | 22312 ft | 330 kts | 95° |
| 2026-04-28 19:05 | 52.11319 | 0.37787 | 22311 ft | 330 kts | 95° |
| 2026-04-28 19:05 | 52.11113 | 0.40288 | 22310 ft | 330 kts | 95° |
| 2026-04-28 19:05 | 52.10805 | 0.43986 | 22310 ft | 330 kts | 95° |
| 2026-04-28 19:06 | 52.10496 | 0.47694 | 22193 ft | 332 kts | 95° |
| 2026-04-28 19:06 | 52.10159 | 0.51417 | 21944 ft | 334 kts | 97° |
| 2026-04-28 19:06 | 52.09734 | 0.55129 | 21658 ft | 334 kts | 98° |
| 2026-04-28 19:06 | 52.09317 | 0.58851 | 21197 ft | 334 kts | 98° |
| 2026-04-28 19:07 | 52.08903 | 0.62545 | 20757 ft | 331 kts | 98° |
| 2026-04-28 19:07 | 52.08494 | 0.66212 | 20340 ft | 328 kts | 98° |
| 2026-04-28 19:07 | 52.08088 | 0.69848 | 19951 ft | 326 kts | 98° |
| 2026-04-28 19:07 | 52.07682 | 0.73473 | 19549 ft | 325 kts | 98° |
| 2026-04-28 19:08 | 52.07281 | 0.77057 | 19149 ft | 318 kts | 98° |
| 2026-04-28 19:08 | 52.06889 | 0.80548 | 18749 ft | 310 kts | 99° |
| 2026-04-28 19:08 | 52.06394 | 0.83912 | 18284 ft | 305 kts | 110° |
| 2026-04-28 19:08 | 52.05458 | 0.86970 | 17899 ft | 298 kts | 115° |
| 2026-04-28 19:09 | 52.04495 | 0.89907 | 17503 ft | 291 kts | 115° |
| 2026-04-28 19:09 | 52.03555 | 0.92791 | 17139 ft | 287 kts | 115° |
| 2026-04-28 19:09 | 52.02626 | 0.95634 | 16763 ft | 284 kts | 115° |
| 2026-04-28 19:09 | 52.01700 | 0.98460 | 16381 ft | 284 kts | 115° |
| 2026-04-28 19:10 | 52.00770 | 1.01299 | 16036 ft | 286 kts | 116° |
| 2026-04-28 19:10 | 51.99845 | 1.04115 | 15650 ft | 287 kts | 116° |
| 2026-04-28 19:10 | 51.98904 | 1.06972 | 15272 ft | 287 kts | 116° |
| 2026-04-28 19:10 | 51.97968 | 1.09819 | 14901 ft | 286 kts | 116° |
| 2026-04-28 19:11 | 51.97030 | 1.12661 | 14516 ft | 285 kts | 116° |
| 2026-04-28 19:11 | 51.96098 | 1.15491 | 14146 ft | 284 kts | 116° |
| 2026-04-28 19:11 | 51.95157 | 1.18338 | 13751 ft | 281 kts | 116° |
| 2026-04-28 19:11 | 51.94251 | 1.21081 | 13409 ft | 278 kts | 116° |
| 2026-04-28 19:12 | 51.93340 | 1.23838 | 13040 ft | 277 kts | 116° |
| 2026-04-28 19:12 | 51.92431 | 1.26584 | 12687 ft | 276 kts | 116° |
| 2026-04-28 19:12 | 51.91515 | 1.29351 | 12343 ft | 274 kts | 116° |
| 2026-04-28 19:12 | 51.90484 | 1.31885 | 12005 ft | 275 kts | 133° |
| 2026-04-28 19:13 | 51.88832 | 1.33464 | 11718 ft | 280 kts | 155° |
| 2026-04-28 19:13 | 51.86961 | 1.34502 | 11387 ft | 281 kts | 156° |
| 2026-04-28 19:13 | 51.85128 | 1.35591 | 11055 ft | 280 kts | 155° |
| 2026-04-28 19:13 | 51.83307 | 1.36691 | 10744 ft | 279 kts | 155° |
| 2026-04-28 19:14 | 51.81491 | 1.37795 | 10433 ft | 278 kts | 155° |
| 2026-04-28 19:14 | 51.79691 | 1.38900 | 10124 ft | 274 kts | 155° |
| 2026-04-28 19:14 | 51.77925 | 1.39984 | 9786 ft | 269 kts | 154° |
| 2026-04-28 19:14 | 51.76223 | 1.41022 | 9533 ft | 261 kts | 153° |
| 2026-04-28 19:15 | 51.74565 | 1.42041 | 9398 ft | 250 kts | 156° |
| 2026-04-28 19:15 | 51.72841 | 1.42282 | 9225 ft | 256 kts | 187° |
| 2026-04-28 19:15 | 51.71200 | 1.41224 | 9157 ft | 252 kts | 202° |
| 2026-04-28 19:15 | 51.70154 | 1.40374 | 9148 ft | 247 kts | 200° |
| 2026-04-28 19:16 | 51.68090 | 1.38816 | 9185 ft | 248 kts | 200° |
| 2026-04-28 19:16 | 51.66521 | 1.37653 | 9211 ft | 250 kts | 197° |
| 2026-04-28 19:16 | 51.64931 | 1.36484 | 9262 ft | 251 kts | 198° |
| 2026-04-28 19:16 | 51.63311 | 1.35309 | 9274 ft | 251 kts | 198° |
| 2026-04-28 19:17 | 51.61734 | 1.34171 | 9266 ft | 252 kts | 199° |
| 2026-04-28 19:17 | 51.60136 | 1.33021 | 9233 ft | 252 kts | 198° |
| 2026-04-28 19:17 | 51.58656 | 1.31488 | 9129 ft | 262 kts | 225° |
| 2026-04-28 19:17 | 51.57743 | 1.28929 | 9153 ft | 264 kts | 245° |
| 2026-04-28 19:18 | 51.57058 | 1.26156 | 9025 ft | 271 kts | 244° |
| 2026-04-28 19:18 | 51.56314 | 1.23381 | 8935 ft | 268 kts | 243° |
| 2026-04-28 19:18 | 51.55570 | 1.20657 | 8776 ft | 265 kts | 244° |
| 2026-04-28 19:18 | 51.54820 | 1.17936 | 8682 ft | 260 kts | 243° |
| 2026-04-28 19:19 | 51.54081 | 1.15277 | 8575 ft | 261 kts | 243° |
| 2026-04-28 19:19 | 51.53344 | 1.12651 | 8492 ft | 261 kts | 243° |
| 2026-04-28 19:19 | 51.52591 | 1.09984 | 8385 ft | 263 kts | 243° |
| 2026-04-28 19:19 | 51.51830 | 1.07302 | 8277 ft | 264 kts | 243° |
| 2026-04-28 19:20 | 51.51071 | 1.04636 | 8176 ft | 263 kts | 243° |
| 2026-04-28 19:20 | 51.50310 | 1.01967 | 8068 ft | 262 kts | 243° |
| 2026-04-28 19:20 | 51.49556 | 0.99323 | 7961 ft | 260 kts | 243° |
| 2026-04-28 19:20 | 51.48799 | 0.96679 | 7883 ft | 261 kts | 243° |
| 2026-04-28 19:21 | 51.48039 | 0.94029 | 7735 ft | 264 kts | 243° |
| 2026-04-28 19:21 | 51.47413 | 0.91250 | 7466 ft | 268 kts | 261° |
| 2026-04-28 19:21 | 51.47420 | 0.88286 | 7229 ft | 266 kts | 278° |
| 2026-04-28 19:21 | 51.47616 | 0.85329 | 6894 ft | 268 kts | 276° |
| 2026-04-28 19:22 | 51.47768 | 0.82334 | 6540 ft | 270 kts | 276° |
| 2026-04-28 19:22 | 51.47864 | 0.80313 | 6375 ft | 267 kts | 276° |
| 2026-04-28 19:22 | 51.48030 | 0.76474 | 6305 ft | 255 kts | 276° |
| 2026-04-28 19:22 | 51.48152 | 0.73642 | 6288 ft | 255 kts | 275° |
| 2026-04-28 19:23 | 51.48268 | 0.70774 | 6048 ft | 265 kts | 275° |
| 2026-04-28 19:23 | 51.48386 | 0.67781 | 5617 ft | 270 kts | 275° |
| 2026-04-28 19:23 | 51.48503 | 0.64719 | 5158 ft | 274 kts | 275° |
| 2026-04-28 19:23 | 51.48612 | 0.61729 | 5065 ft | 264 kts | 275° |
| 2026-04-28 19:24 | 51.48718 | 0.58840 | 4927 ft | 256 kts | 275° |
| 2026-04-28 19:24 | 51.48820 | 0.56016 | 4731 ft | 253 kts | 275° |
| 2026-04-28 19:24 | 51.48921 | 0.53206 | 4531 ft | 251 kts | 275° |
| 2026-04-28 19:24 | 51.49020 | 0.50412 | 4330 ft | 250 kts | 275° |
| 2026-04-28 19:25 | 51.49104 | 0.47622 | 4083 ft | 251 kts | 270° |
| 2026-04-28 19:25 | 51.48661 | 0.44916 | 3828 ft | 252 kts | 239° |
| 2026-04-28 19:25 | 51.47717 | 0.42571 | 3662 ft | 250 kts | 233° |
| 2026-04-28 19:25 | 51.46771 | 0.40245 | 3526 ft | 249 kts | 236° |
| 2026-04-28 19:26 | 51.45861 | 0.37875 | 3387 ft | 250 kts | 237° |
| 2026-04-28 19:26 | 51.44969 | 0.35488 | 3251 ft | 250 kts | 238° |
| 2026-04-28 19:26 | 51.44084 | 0.33089 | 3118 ft | 250 kts | 238° |
| 2026-04-28 19:26 | 51.43227 | 0.30675 | 3078 ft | 249 kts | 246° |
| 2026-04-28 19:27 | 51.42867 | 0.28033 | 3003 ft | 237 kts | 274° |
| 2026-04-28 19:27 | 51.43013 | 0.25488 | 2964 ft | 223 kts | 283° |
| 2026-04-28 19:27 | 51.43202 | 0.23067 | 2974 ft | 216 kts | 281° |
| 2026-04-28 19:27 | 51.43333 | 0.20671 | 3073 ft | 217 kts | 278° |
| 2026-04-28 19:28 | 51.43428 | 0.18231 | 2939 ft | 221 kts | 277° |
| 2026-04-28 19:28 | 51.43508 | 0.15775 | 2795 ft | 220 kts | 277° |
| 2026-04-28 19:28 | 51.43594 | 0.13333 | 2656 ft | 218 kts | 278° |
| 2026-04-28 19:28 | 51.43675 | 0.10917 | 2446 ft | 216 kts | 278° |
| 2026-04-28 19:29 | 51.43749 | 0.08545 | 2243 ft | 209 kts | 279° |
| 2026-04-28 19:29 | 51.43797 | 0.07022 | 2162 ft | 204 kts | 279° |
| 2026-04-28 19:29 | 51.43897 | 0.04010 | 2082 ft | 203 kts | 279° |
| 2026-04-28 19:29 | 51.43968 | 0.01754 | 2115 ft | 199 kts | 279° |
| 2026-04-28 19:30 | 51.44032 | -0.00420 | 1977 ft | 190 kts | 279° |
| 2026-04-28 19:30 | 51.44093 | -0.02436 | 1902 ft | 174 kts | 280° |
| 2026-04-28 19:30 | 51.44158 | -0.04342 | 1892 ft | 171 kts | 280° |
| 2026-04-28 19:30 | 51.44222 | -0.06255 | 1960 ft | 173 kts | 280° |
| 2026-04-28 19:31 | 51.44283 | -0.08195 | 2003 ft | 175 kts | 279° |
| 2026-04-28 19:31 | 51.44576 | -0.10022 | 1978 ft | 163 kts | 315° |
| 2026-04-28 19:31 | 51.45423 | -0.10869 | 1997 ft | 136 kts | 359° |
| 2026-04-28 19:31 | 51.46360 | -0.11139 | 2054 ft | 139 kts | 359° |
| 2026-04-28 19:32 | 51.47315 | -0.11459 | 2029 ft | 141 kts | 358° |
| 2026-04-28 19:32 | 51.48268 | -0.11805 | 1968 ft | 138 kts | 2° |
| 2026-04-28 19:32 | 51.49132 | -0.11543 | 1961 ft | 121 kts | 37° |
| 2026-04-28 19:32 | 51.49686 | -0.10586 | 2163 ft | 121 kts | 50° |
| 2026-04-28 19:33 | 51.50274 | -0.09532 | 2576 ft | 130 kts | 57° |
| 2026-04-28 19:33 | 51.50618 | -0.08149 | 2823 ft | 135 kts | 70° |
| 2026-04-28 19:33 | 51.50866 | -0.06824 | 2279 ft | 124 kts | 80° |
| 2026-04-28 19:33 | 51.50823 | -0.05428 | 1746 ft | 116 kts | 87° |
| 2026-04-28 19:34 | 51.50817 | -0.04228 | 1682 ft | 107 kts | 83° |
| 2026-04-28 19:34 | 51.50787 | -0.03017 | 1793 ft | 107 kts | 86° |
| 2026-04-28 19:34 | 51.50746 | -0.01756 | 1758 ft | 120 kts | 85° |
| 2026-04-28 19:34 | 51.50707 | -0.00369 | 1176 ft | 122 kts | 85° |
| 2026-04-28 19:35 | 51.50661 | 0.00929 | 842 ft | 116 kts | 84° |
| 2026-04-28 19:35 | 51.50639 | 0.02275 | 584 ft | 121 kts | 86° |
| 2026-04-28 19:35 | 51.50578 | 0.03650 | 219 ft | 127 kts | 88° |
| 2026-04-28 19:35 | 51.50540 | 0.04972 | 26 ft | 104 kts | 90° |
| 2026-04-28 19:36 | 51.50510 | 0.05873 | 24 ft | 58 kts | 94° |
| 2026-04-28 19:36 | 51.50498 | 0.06273 | 24 ft | 14 kts | 100° |
| 2026-04-28 19:36 | 51.50433 | 0.06340 | 25 ft | 10 kts | 198° |
| 2026-04-28 19:36 | 51.50416 | 0.06226 | 24 ft | 12 kts | 272° |
| 2026-04-28 19:37 | 51.50421 | 0.06078 | 24 ft | 14 kts | 273° |
| 2026-04-28 19:37 | 51.50424 | 0.05967 | 24 ft | 16 kts | 273° |
| 2026-04-28 19:37 | 51.50433 | 0.05711 | 27 ft | 19 kts | 273° |
| 2026-04-28 19:37 | 51.50441 | 0.05494 | 24 ft | 20 kts | 274° |
| 2026-04-28 19:38 | 51.50450 | 0.05256 | 24 ft | 22 kts | 273° |
| 2026-04-28 19:38 | 51.50460 | 0.05022 | 24 ft | 18 kts | 277° |
| 2026-04-28 19:38 | 51.50462 | 0.04849 | 24 ft | 6 kts | 241° |
| 2026-04-28 19:38 | 51.50434 | 0.04829 | 26 ft | 2 kts | 244° |
| 2026-04-28 19:39 | 51.50436 | 0.04822 | 26 ft | 0 kts | 282° |
| 2026-04-28 19:39 | 51.50438 | 0.04821 | 25 ft | 0 kts | 299° |
| 2026-04-28 19:39 | 51.50439 | 0.04821 | 25 ft | 0 kts | 304° |